Time,TemperatureF,DewpointF,PressureIn,WindDirection,WindDirectionDegrees,WindSpeedMPH,WindSpeedGustMPH,Humidity,HourlyPrecipIn,Conditions,Clouds,dailyrainin,SoftwareType,DateUTC
2013-09-25 00:23:00,63.0,59.0,-100.00,East,90,0.0,0.0,88,-99.99,,,-99.99,,2013-09-25 05:23:00,
2013-09-25 00:53:00,65.0,60.0,-100.00,East,95,0.0,0.0,84,-99.99,,,-99.99,,2013-09-25 05:53:00,
2013-09-25 01:23:00,64.0,59.0,-100.00,East,95,0.0,0.0,82,-99.99,,,-99.99,,2013-09-25 06:23:00,
2013-09-25 01:52:00,63.0,58.0,-100.00,East,90,0.0,0.0,83,-99.99,,,-99.99,,2013-09-25 06:52:00,
2013-09-25 02:22:00,62.0,57.0,-100.00,ENE,75,0.0,0.0,84,-99.99,,,-99.99,,2013-09-25 07:22:00,
2013-09-25 02:53:00,61.0,56.0,-100.00,East,95,0.0,0.0,84,-99.99,,,-99.99,,2013-09-25 07:53:00,
2013-09-25 03:21:00,60.0,56.0,-100.00,ENE,70,0.0,0.0,86,-99.99,,,-99.99,,2013-09-25 08:21:00,
2013-09-25 03:53:00,60.0,56.0,-100.00,ENE,65,0.0,0.0,86,-99.99,,,-99.99,,2013-09-25 08:53:00,
2013-09-25 04:22:00,60.0,56.0,-100.00,East,95,0.0,0.0,86,-99.99,,,-99.99,,2013-09-25 09:22:00,
2013-09-25 04:54:00,59.0,55.0,-100.00,East,100,0.0,0.0,87,-99.99,,,-99.99,,2013-09-25 09:54:00,
2013-09-25 05:23:00,58.0,56.0,-100.00,East,90,0.0,0.0,92,-99.99,,,-99.99,,2013-09-25 10:23:00,
2013-09-25 05:53:00,58.0,56.0,-100.00,East,80,0.0,0.0,92,-99.99,,,-99.99,,2013-09-25 10:53:00,
2013-09-25 06:22:00,58.0,56.0,-100.00,East,95,0.0,0.0,92,-99.99,,,-99.99,,2013-09-25 11:22:00,
2013-09-25 06:52:00,58.0,56.0,-100.00,East,100,0.0,0.0,94,-99.99,,,-99.99,,2013-09-25 11:52:00,
2013-09-25 07:22:00,57.0,56.0,-100.00,East,90,0.0,0.0,96,-99.99,,,-99.99,,2013-09-25 12:22:00,
2013-09-25 07:52:00,56.0,56.0,-100.00,East,100,0.0,0.0,98,-99.99,,,-99.99,,2013-09-25 12:52:00,
2013-09-25 08:22:00,58.0,56.0,-100.00,ESE,105,0.0,0.0,96,-99.99,,,-99.99,,2013-09-25 13:22:00,
2013-09-25 08:52:00,59.0,57.0,-100.00,East,95,0.0,0.0,95,-99.99,,,-99.99,,2013-09-25 13:52:00,
2013-09-25 09:22:00,63.0,58.0,-100.00,East,90,0.0,0.0,84,-99.99,,,-99.99,,2013-09-25 14:22:00,
2013-09-25 09:52:00,66.0,58.0,-100.00,ENE,70,0.0,0.0,75,-99.99,,,-99.99,,2013-09-25 14:52:00,
2013-09-25 10:22:00,69.0,59.0,-100.00,ENE,65,0.0,0.0,70,-99.99,,,-99.99,,2013-09-25 15:22:00,
2013-09-25 10:54:00,71.0,60.0,-100.00,East,95,0.0,0.0,69,-99.99,,,-99.99,,2013-09-25 15:54:00,
2013-09-25 11:23:00,72.0,61.0,-100.00,ENE,70,0.0,0.0,67,-99.99,,,-99.99,,2013-09-25 16:23:00,
2013-09-25 11:53:00,75.0,62.0,-100.00,East,95,0.0,0.0,63,-99.99,,,-99.99,,2013-09-25 16:53:00,
2013-09-25 12:23:00,78.0,61.0,-100.00,East,95,0.0,0.0,57,-99.99,,,-99.99,,2013-09-25 17:23:00,
2013-09-25 12:52:00,80.0,62.0,-100.00,SE,130,0.0,0.0,55,-99.99,,,-99.99,,2013-09-25 17:52:00,
2013-09-25 13:22:00,80.0,61.0,-100.00,ESE,105,0.0,0.0,53,-99.99,,,-99.99,,2013-09-25 18:22:00,
2013-09-25 13:52:00,81.0,61.0,-100.00,NE,55,0.0,0.0,51,-99.99,,,-99.99,,2013-09-25 18:52:00,
2013-09-25 14:22:00,81.0,61.0,-100.00,East,90,0.0,0.0,51,-99.99,,,-99.99,,2013-09-25 19:22:00,
2013-09-25 14:53:00,82.0,62.0,-100.00,East,80,0.0,0.0,51,-99.99,,,-99.99,,2013-09-25 19:53:00,
2013-09-25 15:22:00,82.0,61.0,-100.00,ESE,115,0.0,0.0,49,-99.99,,,-99.99,,2013-09-25 20:22:00,
2013-09-25 15:52:00,82.0,61.0,-100.00,East,85,0.0,0.0,49,-99.99,,,-99.99,,2013-09-25 20:52:00,
2013-09-25 16:22:00,80.0,61.0,-100.00,East,95,0.0,0.0,52,-99.99,,,-99.99,,2013-09-25 21:22:00,
2013-09-25 16:55:00,79.0,61.0,-100.00,ESE,105,0.0,0.0,53,-99.99,,,-99.99,,2013-09-25 21:55:00,
2013-09-25 17:23:00,78.0,61.0,-100.00,ENE,65,0.0,0.0,56,-99.99,,,-99.99,,2013-09-25 22:23:00,
2013-09-25 17:53:00,78.0,61.0,-100.00,NNW,330,0.0,0.0,55,-99.99,,,-99.99,,2013-09-25 22:53:00,
2013-09-25 18:22:00,78.0,61.0,-100.00,ENE,60,0.0,0.0,57,-99.99,,,-99.99,,2013-09-25 23:22:00,
2013-09-25 18:53:00,76.0,62.0,-100.00,East,90,0.0,0.0,61,-99.99,,,-99.99,,2013-09-25 23:53:00,
2013-09-25 19:22:00,74.0,62.0,-100.00,East,90,0.0,0.0,67,-99.99,,,-99.99,,2013-09-26 00:22:00,
2013-09-25 19:52:00,71.0,63.0,-100.00,East,85,0.0,0.0,75,-99.99,,,-99.99,,2013-09-26 00:52:00,
2013-09-25 20:22:00,69.0,64.0,-100.00,East,95,0.0,0.0,86,-99.99,,,-99.99,,2013-09-26 01:22:00,
2013-09-25 20:52:00,66.0,65.0,-100.00,East,90,0.0,0.0,96,-99.99,,,-99.99,,2013-09-26 01:52:00,
2013-09-25 21:21:00,65.0,65.0,-100.00,East,95,0.0,0.0,99,-99.99,,,-99.99,,2013-09-26 02:21:00,
2013-09-25 22:22:00,63.0,63.0,-100.00,East,90,0.0,0.0,99,-99.99,,,-99.99,,2013-09-26 03:22:00,
2013-09-25 22:55:00,62.0,62.0,-100.00,ESE,110,0.0,0.0,99,-99.99,,,-99.99,,2013-09-26 03:55:00,
2013-09-25 23:24:00,64.0,63.0,-100.00,East,100,0.0,0.0,97,-99.99,,,-99.99,,2013-09-26 04:24:00,
2013-09-25 23:54:00,63.0,61.0,-100.00,ESE,105,0.0,0.0,92,-99.99,,,-99.99,,2013-09-26 04:54:00,